createdAt,value
2017-11-09T00:00:50.058Z,77.80
2017-11-09T00:02:01.432Z,69.78
2017-11-09T00:03:08.458Z,71.22
2017-11-09T00:04:19.893Z,74.12
2017-11-09T00:05:31.373Z,69.80
2017-11-09T00:06:37.099Z,76.40
2017-11-09T00:07:43.207Z,73.40
2017-11-09T00:08:49.298Z,75.07
2017-11-09T00:09:55.726Z,72.28
2017-11-09T00:11:01.619Z,71.70
2017-11-09T00:12:07.723Z,75.18
2017-11-09T00:13:14.770Z,76.82
2017-11-09T00:14:25.001Z,76.10
2017-11-09T00:15:31.144Z,72.90
2017-11-09T00:16:36.887Z,74.87
2017-11-09T00:17:43.010Z,73.37
2017-11-09T00:18:48.926Z,77.57
2017-11-09T00:19:55.056Z,77.12
2017-11-09T00:21:01.177Z,77.93
2017-11-09T00:22:07.243Z,83.10
2017-11-09T00:23:15.965Z,83.28
2017-11-09T00:24:22.118Z,91.10
2017-11-09T00:25:28.043Z,82.55
2017-11-09T00:26:34.133Z,90.47
2017-11-09T00:27:40.214Z,89.05
2017-11-09T00:28:48.113Z,94.95
2017-11-09T00:29:54.232Z,90.87
2017-11-09T00:31:00.301Z,82.15
2017-11-09T00:32:06.413Z,80.72
2017-11-09T00:33:12.480Z,83.95
2017-11-09T00:34:18.594Z,89.87
2017-11-09T00:35:24.723Z,93.93
2017-11-09T00:36:30.854Z,85.60
2017-11-09T00:37:36.945Z,83.40
2017-11-09T00:38:43.082Z,90.70
2017-11-09T00:39:51.242Z,91.55
2017-11-09T00:40:57.332Z,86.70
2017-11-09T00:42:03.410Z,85.65
2017-11-09T00:43:09.501Z,85.57
2017-11-09T00:44:15.626Z,86.93
2017-11-09T00:45:21.723Z,83.30
2017-11-09T00:46:27.807Z,93.05
2017-11-09T00:47:33.885Z,93.57
2017-11-09T00:48:40.016Z,95.00
2017-11-09T00:49:46.136Z,83.60
2017-11-09T00:50:52.237Z,86.50
2017-11-09T00:51:58.314Z,88.93
2017-11-09T00:53:04.391Z,90.10
2017-11-09T00:54:15.709Z,85.47
2017-11-09T00:55:21.819Z,87.05
2017-11-09T00:56:28.085Z,90.30
2017-11-09T00:57:34.202Z,92.72
2017-11-09T00:58:40.333Z,88.37
2017-11-09T00:59:46.461Z,101.87
2017-11-09T01:00:51.839Z,95.57
2017-11-09T01:01:57.934Z,95.43
2017-11-09T01:03:03.641Z,91.30
2017-11-09T01:04:09.520Z,89.22
2017-11-09T01:05:15.669Z,89.32
2017-11-09T01:06:21.530Z,95.38
2017-11-09T01:07:27.692Z,100.32
2017-11-09T01:08:33.767Z,94.18
2017-11-09T01:09:39.876Z,98.95
2017-11-09T01:10:45.937Z,87.62
2017-11-09T01:11:52.013Z,93.37
2017-11-09T01:12:58.095Z,97.10
2017-11-09T01:14:04.203Z,84.20
2017-11-09T01:15:10.306Z,94.07
2017-11-09T01:16:16.378Z,88.62
2017-11-09T01:17:22.455Z,82.68
2017-11-09T01:18:28.548Z,92.40
2017-11-09T01:19:34.612Z,92.80
2017-11-09T01:20:40.481Z,90.45
2017-11-09T01:21:46.581Z,87.47
2017-11-09T01:22:52.662Z,90.72
2017-11-09T01:23:58.752Z,89.25
2017-11-09T01:25:04.544Z,90.57
2017-11-09T01:26:11.477Z,90.32
2017-11-09T01:27:17.552Z,85.80
2017-11-09T01:28:23.447Z,87.28
2017-11-09T01:29:29.544Z,91.60
2017-11-09T01:30:35.649Z,90.43
2017-11-09T01:31:41.741Z,91.87
2017-11-09T01:32:47.845Z,85.62
2017-11-09T01:33:53.914Z,86.93
2017-11-09T01:35:00.020Z,93.05
2017-11-09T01:36:06.110Z,89.57
2017-11-09T01:37:12.236Z,88.75
2017-11-09T01:38:18.317Z,92.25
2017-11-09T01:39:24.437Z,88.45
2017-11-09T01:40:30.515Z,85.40
2017-11-09T01:41:36.612Z,85.20
2017-11-09T01:42:42.688Z,87.40
2017-11-09T01:43:48.776Z,91.72
2017-11-09T01:44:54.488Z,94.20
2017-11-09T01:46:00.592Z,87.30
2017-11-09T01:47:07.368Z,87.32
2017-11-09T01:48:13.117Z,82.93
2017-11-09T01:49:19.218Z,84.13
2017-11-09T01:50:25.289Z,90.40
2017-11-09T01:51:31.387Z,89.07
2017-11-09T01:52:37.475Z,86.30
2017-11-09T01:53:44.479Z,95.43
2017-11-09T01:54:52.094Z,86.40
2017-11-09T01:55:58.226Z,86.22
2017-11-09T01:57:03.901Z,85.45
2017-11-09T01:58:09.967Z,88.65
2017-11-09T01:59:15.807Z,89.30
2017-11-09T02:00:21.193Z,88.25
2017-11-09T02:01:31.390Z,91.25
2017-11-09T02:02:37.502Z,89.47
2017-11-09T02:03:43.599Z,89.20
2017-11-09T02:04:49.683Z,86.15
2017-11-09T02:05:55.831Z,90.62
2017-11-09T02:07:01.916Z,87.10
2017-11-09T02:08:07.985Z,81.43
2017-11-09T02:09:19.286Z,91.28
2017-11-09T02:10:25.362Z,91.82
2017-11-09T02:11:31.479Z,92.68
2017-11-09T02:12:37.552Z,90.78
2017-11-09T02:13:43.049Z,90.85
2017-11-09T02:14:49.177Z,96.05
2017-11-09T02:15:54.926Z,91.63
2017-11-09T02:17:00.994Z,90.43
2017-11-09T02:18:06.918Z,96.03
2017-11-09T02:19:12.633Z,92.07
2017-11-09T02:20:18.030Z,88.70
2017-11-09T02:21:23.784Z,90.87
2017-11-09T02:22:29.127Z,88.00
2017-11-09T02:23:34.470Z,94.50
2017-11-09T02:24:39.846Z,95.60
2017-11-09T02:25:45.569Z,85.75
2017-11-09T02:26:50.725Z,87.65
2017-11-09T02:27:56.107Z,91.40
2017-11-09T02:29:01.807Z,90.60
2017-11-09T02:30:07.189Z,89.15
2017-11-09T02:31:12.918Z,95.12
2017-11-09T02:32:18.300Z,94.43
2017-11-09T02:33:23.468Z,96.28
2017-11-09T02:34:28.846Z,101.95
2017-11-09T02:35:34.962Z,92.53
2017-11-09T02:36:40.353Z,93.60
2017-11-09T02:37:45.852Z,93.00
2017-11-09T02:38:51.956Z,93.05
2017-11-09T02:39:58.058Z,88.30
2017-11-09T02:41:03.803Z,95.15
2017-11-09T02:42:09.882Z,93.55
2017-11-09T02:43:15.965Z,88.50
2017-11-09T02:44:22.048Z,94.75
2017-11-09T02:45:27.384Z,92.93
2017-11-09T02:46:32.952Z,84.95
2017-11-09T02:47:39.041Z,89.18
2017-11-09T02:48:45.148Z,88.90
2017-11-09T02:49:50.879Z,85.10
2017-11-09T02:50:57.442Z,93.72
2017-11-09T02:52:05.094Z,84.80
2017-11-09T02:53:11.188Z,91.75
2017-11-09T02:54:28.111Z,88.35
2017-11-09T02:55:33.277Z,95.28
2017-11-09T02:56:38.435Z,89.85
2017-11-09T02:57:43.804Z,93.65
2017-11-09T02:58:49.213Z,93.07
2017-11-09T02:59:54.564Z,95.57
2017-11-09T03:01:00.341Z,87.70
2017-11-09T03:02:07.135Z,91.22
2017-11-09T03:03:13.232Z,96.43
2017-11-09T03:04:18.780Z,92.30
2017-11-09T03:05:24.860Z,99.65
2017-11-09T03:06:30.988Z,94.43
2017-11-09T03:07:36.859Z,87.78
2017-11-09T03:08:42.918Z,87.45
2017-11-09T03:09:48.992Z,89.00
2017-11-09T03:10:55.067Z,98.75
2017-11-09T03:12:01.153Z,87.80
2017-11-09T03:13:07.230Z,90.87
2017-11-09T03:14:13.319Z,92.85
2017-11-09T03:15:19.381Z,96.20
2017-11-09T03:16:25.490Z,96.97
2017-11-09T03:17:31.586Z,92.25
2017-11-09T03:18:37.299Z,92.88
2017-11-09T03:19:43.244Z,90.62
2017-11-09T03:20:49.320Z,89.80
2017-11-09T03:21:55.420Z,90.95
2017-11-09T03:23:01.507Z,88.03
2017-11-09T03:24:07.615Z,88.05
2017-11-09T03:25:14.591Z,95.62
2017-11-09T03:26:20.935Z,89.95
2017-11-09T03:27:27.683Z,99.43
2017-11-09T03:28:33.779Z,92.18
2017-11-09T03:29:39.861Z,89.40
2017-11-09T03:30:47.917Z,89.87
2017-11-09T03:31:54.038Z,88.62
2017-11-09T03:33:00.129Z,89.65
2017-11-09T03:34:06.187Z,91.53
2017-11-09T03:35:12.270Z,94.15
2017-11-09T03:36:18.353Z,94.70
2017-11-09T03:37:24.489Z,92.22
2017-11-09T03:38:30.587Z,97.45
2017-11-09T03:39:36.665Z,92.68
2017-11-09T03:40:42.352Z,99.10
2017-11-09T03:41:48.493Z,102.25
2017-11-09T03:42:54.239Z,96.12
2017-11-09T03:44:00.332Z,93.25
2017-11-09T03:45:06.073Z,91.15
2017-11-09T03:46:11.266Z,98.37
2017-11-09T03:47:16.579Z,94.03
2017-11-09T03:48:22.663Z,98.93
2017-11-09T03:49:28.748Z,92.32
2017-11-09T03:50:34.605Z,91.93
2017-11-09T03:51:39.817Z,93.15
2017-11-09T03:52:46.655Z,96.80
2017-11-09T03:53:52.737Z,101.93
2017-11-09T03:55:06.787Z,97.18
2017-11-09T03:56:12.858Z,88.93
2017-11-09T03:57:23.820Z,99.03
2017-11-09T03:58:29.912Z,95.72
2017-11-09T03:59:36.002Z,101.75
2017-11-09T04:00:42.115Z,95.55
2017-11-09T04:01:48.255Z,106.63
2017-11-09T04:02:54.402Z,97.25
2017-11-09T04:04:00.479Z,98.57
2017-11-09T04:05:06.550Z,103.97
2017-11-09T04:06:12.656Z,104.12
2017-11-09T04:07:18.754Z,95.90
2017-11-09T04:08:24.881Z,98.05
2017-11-09T04:09:30.977Z,101.22
2017-11-09T04:10:37.980Z,103.47
2017-11-09T04:11:44.065Z,100.40
2017-11-09T04:12:50.160Z,100.15
2017-11-09T04:13:56.324Z,99.65
2017-11-09T04:15:02.420Z,100.12
2017-11-09T04:16:08.490Z,101.53
2017-11-09T04:17:14.604Z,103.20
2017-11-09T04:18:20.706Z,101.97
2017-11-09T04:19:26.794Z,100.43
2017-11-09T04:20:32.561Z,106.53
2017-11-09T04:21:38.664Z,107.37
2017-11-09T04:22:44.824Z,105.55
2017-11-09T04:23:50.916Z,99.87
2017-11-09T04:24:57.013Z,104.93
2017-11-09T04:26:03.106Z,101.55
2017-11-09T04:27:10.199Z,95.47
2017-11-09T04:28:16.227Z,106.87
2017-11-09T04:29:22.315Z,106.28
2017-11-09T04:30:28.418Z,100.72
2017-11-09T04:31:34.505Z,104.45
2017-11-09T04:32:44.486Z,100.00
2017-11-09T04:33:52.574Z,106.37
2017-11-09T04:34:58.659Z,104.50
2017-11-09T04:36:04.723Z,111.03
2017-11-09T04:37:10.998Z,98.28
2017-11-09T04:38:16.934Z,110.35
2017-11-09T04:39:23.042Z,97.30
2017-11-09T04:40:29.157Z,100.65
2017-11-09T04:41:35.064Z,103.75
2017-11-09T04:42:41.176Z,97.35
2017-11-09T04:43:50.781Z,106.28
2017-11-09T04:44:56.964Z,97.40
2017-11-09T04:46:03.980Z,100.65
2017-11-09T04:47:10.053Z,95.65
2017-11-09T04:48:16.239Z,97.15
2017-11-09T04:49:22.354Z,98.57
2017-11-09T04:50:28.148Z,91.18
2017-11-09T04:51:34.247Z,97.22
2017-11-09T04:52:44.474Z,93.97
2017-11-09T04:53:50.543Z,99.28
2017-11-09T04:54:56.652Z,98.00
2017-11-09T04:56:02.747Z,95.25
2017-11-09T04:57:09.710Z,104.97
2017-11-09T04:58:15.839Z,90.93
2017-11-09T04:59:21.923Z,97.57
2017-11-09T05:00:27.999Z,106.87
2017-11-09T05:01:33.878Z,101.25
2017-11-09T05:02:39.988Z,102.25
2017-11-09T05:03:46.077Z,111.45
2017-11-09T05:04:52.135Z,97.90
2017-11-09T05:05:58.214Z,100.30
2017-11-09T05:07:04.280Z,99.15
2017-11-09T05:08:10.381Z,97.80
2017-11-09T05:09:16.580Z,101.87
2017-11-09T05:10:22.634Z,96.80
2017-11-09T05:11:28.734Z,106.15
2017-11-09T05:12:36.052Z,99.95
2017-11-09T05:13:44.387Z,107.03
2017-11-09T05:14:50.463Z,106.78
2017-11-09T05:15:56.545Z,97.45
2017-11-09T05:17:02.758Z,108.15
2017-11-09T05:18:08.851Z,95.40
2017-11-09T05:19:14.922Z,102.22
2017-11-09T05:20:20.979Z,104.00
2017-11-09T05:21:27.049Z,101.47
2017-11-09T05:22:33.208Z,100.85
2017-11-09T05:23:39.304Z,100.15
2017-11-09T05:24:45.370Z,106.65
2017-11-09T05:25:51.447Z,99.22
2017-11-09T05:26:57.542Z,113.43
2017-11-09T05:28:03.630Z,100.82
2017-11-09T05:29:09.733Z,104.97
2017-11-09T05:30:21.401Z,108.28
2017-11-09T05:31:27.473Z,97.82
2017-11-09T05:32:33.547Z,99.45
2017-11-09T05:33:39.652Z,104.05
2017-11-09T05:34:45.734Z,102.05
2017-11-09T05:35:51.796Z,94.70
2017-11-09T05:36:57.875Z,95.40
2017-11-09T05:38:04.200Z,89.47
2017-11-09T05:39:10.285Z,91.97
2017-11-09T05:40:16.340Z,99.30
2017-11-09T05:41:22.434Z,95.80
2017-11-09T05:42:28.753Z,97.93
2017-11-09T05:43:34.654Z,98.12
2017-11-09T05:44:40.282Z,101.20
2017-11-09T05:45:45.776Z,90.80
2017-11-09T05:46:52.575Z,93.12
2017-11-09T05:47:58.674Z,101.70
2017-11-09T05:49:04.398Z,98.97
2017-11-09T05:50:10.449Z,94.62
2017-11-09T05:51:16.521Z,97.82
2017-11-09T05:52:22.582Z,92.32
2017-11-09T05:53:28.704Z,100.70
2017-11-09T05:54:34.571Z,94.78
2017-11-09T05:55:40.291Z,100.43
2017-11-09T05:56:46.362Z,92.62
2017-11-09T05:57:52.439Z,108.68
2017-11-09T05:58:58.556Z,100.45
2017-11-09T06:00:04.240Z,94.03
2017-11-09T06:01:09.780Z,93.78
2017-11-09T06:02:15.509Z,98.30
2017-11-09T06:03:21.234Z,103.18
2017-11-09T06:04:27.357Z,104.57
2017-11-09T06:05:38.361Z,104.63
2017-11-09T06:06:44.086Z,97.18
2017-11-09T06:07:49.437Z,98.57
2017-11-09T06:08:55.561Z,104.60
2017-11-09T06:10:01.655Z,111.22
2017-11-09T06:11:07.365Z,102.00
2017-11-09T06:12:13.472Z,95.38
2017-11-09T06:13:19.170Z,106.35
2017-11-09T06:14:25.320Z,104.05
2017-11-09T06:15:30.982Z,110.30
2017-11-09T06:16:37.030Z,107.60
2017-11-09T06:17:43.103Z,112.75
2017-11-09T06:18:49.211Z,116.40
2017-11-09T06:19:55.308Z,107.12
2017-11-09T06:21:01.400Z,115.72
2017-11-09T06:22:07.464Z,110.85
2017-11-09T06:23:13.541Z,112.15
2017-11-09T06:24:19.632Z,116.93
2017-11-09T06:25:25.764Z,110.20
2017-11-09T06:26:32.207Z,109.37
2017-11-09T06:27:38.283Z,116.47
2017-11-09T06:28:44.375Z,108.50
2017-11-09T06:29:50.450Z,107.57
2017-11-09T06:30:56.561Z,116.12
2017-11-09T06:32:02.699Z,112.05
2017-11-09T06:33:08.790Z,117.87
2017-11-09T06:34:14.887Z,112.18
2017-11-09T06:35:20.988Z,115.68
2017-11-09T06:36:27.056Z,109.75
2017-11-09T06:37:33.151Z,107.78
2017-11-09T06:38:39.295Z,98.15
2017-11-09T06:39:45.392Z,110.82
2017-11-09T06:40:51.471Z,114.12
2017-11-09T06:41:57.553Z,104.57
2017-11-09T06:43:03.652Z,113.57
2017-11-09T06:44:09.750Z,96.90
2017-11-09T06:45:15.817Z,107.07
2017-11-09T06:46:21.935Z,117.30
2017-11-09T06:47:27.859Z,98.75
2017-11-09T06:48:33.931Z,103.90
2017-11-09T06:49:40.054Z,102.65
2017-11-09T06:50:46.158Z,96.70
2017-11-09T06:51:52.229Z,102.35
2017-11-09T06:52:58.321Z,101.53
2017-11-09T06:54:07.651Z,100.60
2017-11-09T06:55:13.936Z,97.32
2017-11-09T06:56:20.710Z,109.12
2017-11-09T06:57:26.583Z,95.85
2017-11-09T06:58:37.552Z,99.85
2017-11-09T06:59:44.256Z,108.75
2017-11-09T07:00:51.093Z,111.53
2017-11-09T07:01:57.350Z,105.20
2017-11-09T07:03:03.668Z,104.10
2017-11-09T07:04:10.006Z,102.07
2017-11-09T07:05:16.657Z,103.45
2017-11-09T07:06:22.893Z,97.75
2017-11-09T07:07:29.212Z,96.20
2017-11-09T07:08:35.641Z,103.60
2017-11-09T07:09:42.036Z,105.95
2017-11-09T07:10:48.515Z,103.75
2017-11-09T07:11:55.016Z,102.50
2017-11-09T07:13:01.348Z,99.93
2017-11-09T07:14:07.555Z,105.95
2017-11-09T07:15:13.664Z,104.53
2017-11-09T07:16:19.691Z,101.78
2017-11-09T07:17:26.182Z,103.43
2017-11-09T07:18:32.855Z,111.07
2017-11-09T07:19:39.212Z,102.65
2017-11-09T07:20:45.731Z,108.05
2017-11-09T07:21:52.118Z,93.75
2017-11-09T07:22:58.948Z,102.22
2017-11-09T07:24:04.570Z,101.82
2017-11-09T07:25:12.011Z,108.97
2017-11-09T07:26:18.639Z,102.55
2017-11-09T07:27:25.093Z,94.37
2017-11-09T07:28:31.737Z,109.35
2017-11-09T07:29:38.565Z,100.75
2017-11-09T07:30:44.544Z,101.25
2017-11-09T07:31:50.496Z,102.18
2017-11-09T07:32:56.555Z,111.95
2017-11-09T07:34:03.805Z,111.43
2017-11-09T07:35:10.597Z,97.22
2017-11-09T07:36:16.504Z,103.65
2017-11-09T07:37:23.385Z,102.47
2017-11-09T07:38:29.715Z,99.07
2017-11-09T07:39:35.711Z,98.75
2017-11-09T07:40:42.827Z,95.95
2017-11-09T07:41:49.137Z,99.47
2017-11-09T07:42:55.831Z,103.07
2017-11-09T07:44:02.475Z,100.60
2017-11-09T07:45:09.849Z,94.85
2017-11-09T07:46:16.888Z,100.32
2017-11-09T07:47:23.201Z,101.47
2017-11-09T07:48:30.093Z,103.43
2017-11-09T07:49:36.364Z,98.78
2017-11-09T07:50:42.700Z,103.45
2017-11-09T07:51:49.152Z,103.30
2017-11-09T07:52:55.436Z,104.65
2017-11-09T07:54:01.824Z,107.65
2017-11-09T07:55:08.164Z,98.70
2017-11-09T07:56:14.530Z,99.60
2017-11-09T07:57:20.735Z,107.20
2017-11-09T07:58:26.987Z,106.55
2017-11-09T07:59:33.227Z,113.70
2017-11-09T08:00:39.587Z,98.50
2017-11-09T08:01:51.780Z,104.45
2017-11-09T08:02:58.443Z,100.40
2017-11-09T08:04:04.716Z,94.75
2017-11-09T08:05:11.005Z,101.93
2017-11-09T08:06:17.293Z,103.82
2017-11-09T08:07:23.603Z,99.62
2017-11-09T08:08:29.735Z,101.85
2017-11-09T08:09:37.849Z,100.97
2017-11-09T08:10:44.163Z,97.50
2017-11-09T08:11:50.457Z,101.20
2017-11-09T08:12:56.778Z,91.72
2017-11-09T08:14:03.092Z,90.50
2017-11-09T08:15:09.402Z,101.55
2017-11-09T08:16:15.783Z,91.95
2017-11-09T08:17:22.097Z,93.60
2017-11-09T08:18:29.377Z,93.55
2017-11-09T08:19:36.224Z,93.70
2017-11-09T08:20:42.486Z,93.53
2017-11-09T08:21:49.135Z,100.50
2017-11-09T08:22:55.445Z,97.82
2017-11-09T08:24:04.312Z,101.80
2017-11-09T08:25:12.319Z,98.00
2017-11-09T08:26:22.123Z,99.43
2017-11-09T08:27:31.268Z,98.75
2017-11-09T08:28:37.498Z,94.68
2017-11-09T08:29:46.079Z,90.10
2017-11-09T08:30:55.764Z,93.37
2017-11-09T08:32:06.100Z,99.00
2017-11-09T08:33:21.957Z,94.57
2017-11-09T08:34:29.389Z,92.53
2017-11-09T08:35:35.553Z,97.12
2017-11-09T08:36:41.909Z,106.12
2017-11-09T08:37:48.608Z,97.05
2017-11-09T08:38:55.300Z,99.13
2017-11-09T08:40:01.683Z,89.35
2017-11-09T08:41:08.051Z,98.65
2017-11-09T08:42:14.319Z,94.45
2017-11-09T08:43:20.705Z,100.47
2017-11-09T08:44:27.528Z,96.37
2017-11-09T08:45:33.441Z,103.72
2017-11-09T08:46:40.151Z,93.18
2017-11-09T08:47:45.979Z,99.80
2017-11-09T08:48:52.237Z,88.07
2017-11-09T08:49:58.351Z,94.13
2017-11-09T08:51:04.513Z,104.22
2017-11-09T08:52:11.184Z,97.62
2017-11-09T08:53:17.512Z,103.97
2017-11-09T08:54:23.779Z,90.68
2017-11-09T08:55:30.193Z,102.35
2017-11-09T08:56:36.137Z,106.10
2017-11-09T08:57:44.664Z,105.55
2017-11-09T08:58:50.998Z,110.18
2017-11-09T08:59:57.733Z,112.60
2017-11-09T09:01:04.127Z,109.03
2017-11-09T09:02:10.527Z,103.53
2017-11-09T09:03:17.319Z,109.82
2017-11-09T09:04:23.614Z,103.00
2017-11-09T09:05:29.910Z,109.78
2017-11-09T09:06:36.535Z,108.60
2017-11-09T09:07:42.915Z,120.07
2017-11-09T09:08:49.335Z,121.72
2017-11-09T09:09:55.437Z,120.95
2017-11-09T09:11:01.964Z,115.12
2017-11-09T09:12:07.711Z,113.15
2017-11-09T09:13:13.868Z,109.00
2017-11-09T09:14:20.403Z,113.12
2017-11-09T09:15:26.292Z,113.47
2017-11-09T09:16:32.419Z,115.90
2017-11-09T09:17:38.535Z,111.70
2017-11-09T09:18:44.651Z,115.35
2017-11-09T09:19:50.805Z,104.78
2017-11-09T09:21:00.720Z,120.20
2017-11-09T09:22:07.123Z,106.28
2017-11-09T09:23:13.635Z,108.20
2017-11-09T09:24:38.607Z,113.93
2017-11-09T09:25:59.624Z,112.97
2017-11-09T09:27:09.974Z,110.72
2017-11-09T09:28:34.913Z,121.43
2017-11-09T09:30:07.788Z,114.57
2017-11-09T09:31:13.736Z,111.07
2017-11-09T09:32:30.392Z,120.15
2017-11-09T09:33:38.999Z,107.50
2017-11-09T09:35:04.315Z,116.10
2017-11-09T09:36:34.285Z,112.55
2017-11-09T09:37:44.688Z,120.10
2017-11-09T09:39:03.441Z,111.22
2017-11-09T09:40:12.859Z,113.28
2017-11-09T09:41:20.749Z,110.20
2017-11-09T09:42:26.710Z,99.28
2017-11-09T09:43:32.279Z,111.75
2017-11-09T09:44:38.209Z,110.60
2017-11-09T09:45:44.204Z,111.88
2017-11-09T09:46:50.137Z,106.85
2017-11-09T09:47:56.083Z,106.72
2017-11-09T09:49:02.016Z,113.12
2017-11-09T09:50:09.802Z,120.75
2017-11-09T09:51:16.711Z,109.05
2017-11-09T09:52:22.891Z,116.65
2017-11-09T09:53:29.052Z,111.10
2017-11-09T09:54:35.005Z,107.85
2017-11-09T09:55:41.180Z,112.93
2017-11-09T09:56:47.116Z,109.30
2017-11-09T09:57:53.102Z,120.50
2017-11-09T09:58:59.269Z,113.37
2017-11-09T10:00:05.260Z,109.82
2017-11-09T10:01:10.881Z,109.40
2017-11-09T10:02:17.033Z,107.60
2017-11-09T10:03:23.171Z,116.57
2017-11-09T10:04:29.100Z,116.85
2017-11-09T10:05:35.216Z,114.85
2017-11-09T10:06:42.189Z,106.80
2017-11-09T10:07:48.362Z,102.43
2017-11-09T10:08:54.484Z,111.65
2017-11-09T10:10:00.428Z,114.20
2017-11-09T10:11:06.545Z,106.20
2017-11-09T10:12:12.689Z,98.05
2017-11-09T10:13:18.831Z,111.95
2017-11-09T10:14:24.964Z,99.07
2017-11-09T10:15:31.124Z,100.35
2017-11-09T10:16:37.130Z,106.90
2017-11-09T10:17:43.259Z,102.87
2017-11-09T10:18:49.376Z,100.32
2017-11-09T10:19:56.320Z,101.80
2017-11-09T10:21:02.421Z,107.97
2017-11-09T10:22:08.584Z,96.70
2017-11-09T10:23:14.712Z,102.62
2017-11-09T10:24:20.898Z,108.20
2017-11-09T10:25:27.036Z,103.62
2017-11-09T10:26:33.168Z,111.57
2017-11-09T10:27:39.308Z,110.05
2017-11-09T10:28:45.430Z,108.40
2017-11-09T10:29:51.556Z,107.15
2017-11-09T10:30:57.685Z,111.65
2017-11-09T10:32:03.878Z,126.00
2017-11-09T10:33:10.013Z,107.68
2017-11-09T10:34:16.173Z,102.07
2017-11-09T10:35:22.304Z,110.82
2017-11-09T10:36:28.426Z,106.05
2017-11-09T10:37:34.597Z,110.85
2017-11-09T10:38:40.743Z,108.57
2017-11-09T10:39:46.890Z,102.72
2017-11-09T10:40:53.103Z,111.75
2017-11-09T10:41:59.258Z,108.37
2017-11-09T10:43:05.363Z,106.75
2017-11-09T10:44:11.522Z,107.05
2017-11-09T10:45:17.688Z,101.43
2017-11-09T10:46:23.817Z,104.30
2017-11-09T10:47:29.778Z,113.00
2017-11-09T10:48:35.528Z,114.37
2017-11-09T10:49:41.313Z,115.40
2017-11-09T10:50:47.434Z,104.78
2017-11-09T10:51:53.609Z,113.72
2017-11-09T10:53:02.579Z,107.68
2017-11-09T10:54:08.712Z,103.32
2017-11-09T10:55:14.863Z,108.28
2017-11-09T10:56:20.977Z,108.63
2017-11-09T10:57:26.802Z,113.30
2017-11-09T10:58:32.927Z,103.07
2017-11-09T10:59:39.240Z,110.55
2017-11-09T11:00:44.423Z,108.93
2017-11-09T11:01:50.005Z,107.82
2017-11-09T11:02:56.091Z,109.32
2017-11-09T11:04:02.193Z,120.60
2017-11-09T11:05:08.344Z,104.47
2017-11-09T11:06:14.518Z,101.55
2017-11-09T11:07:20.339Z,114.00
2017-11-09T11:08:26.454Z,113.35
2017-11-09T11:09:32.209Z,114.55
2017-11-09T11:10:38.324Z,116.20
2017-11-09T11:11:44.439Z,110.07
2017-11-09T11:12:50.535Z,114.10
2017-11-09T11:13:56.664Z,110.40
2017-11-09T11:15:02.833Z,114.30
2017-11-09T11:16:09.000Z,108.30
2017-11-09T11:17:15.144Z,119.45
2017-11-09T11:18:21.311Z,115.82
2017-11-09T11:19:27.444Z,117.53
2017-11-09T11:20:33.583Z,119.57
2017-11-09T11:21:39.723Z,107.25
2017-11-09T11:22:45.888Z,112.70
2017-11-09T11:23:51.995Z,111.95
2017-11-09T11:25:00.130Z,106.97
2017-11-09T11:26:06.325Z,106.20
2017-11-09T11:27:12.477Z,113.00
2017-11-09T11:28:18.714Z,104.12
2017-11-09T11:29:24.870Z,116.50
2017-11-09T11:30:31.007Z,109.90
2017-11-09T11:31:36.829Z,102.93
2017-11-09T11:32:42.983Z,112.20
2017-11-09T11:33:49.134Z,112.80
2017-11-09T11:34:55.273Z,114.70
2017-11-09T11:36:01.407Z,112.78
2017-11-09T11:37:06.854Z,108.43
2017-11-09T11:38:12.809Z,111.32
2017-11-09T11:39:18.960Z,110.43
2017-11-09T11:40:25.076Z,121.25
2017-11-09T11:41:31.246Z,115.95
2017-11-09T11:42:37.423Z,117.15
2017-11-09T11:43:46.608Z,110.95
2017-11-09T11:44:52.706Z,109.32
2017-11-09T11:45:58.833Z,111.07
2017-11-09T11:47:04.974Z,102.68
2017-11-09T11:48:11.105Z,114.40
2017-11-09T11:49:17.254Z,115.72
2017-11-09T11:50:23.425Z,115.22
2017-11-09T11:51:29.530Z,119.45
2017-11-09T11:52:35.731Z,115.37
2017-11-09T11:53:41.852Z,117.28
2017-11-09T11:54:48.025Z,118.35
2017-11-09T11:55:54.125Z,104.70
2017-11-09T11:57:00.252Z,122.07
2017-11-09T11:58:06.448Z,110.80
2017-11-09T11:59:15.852Z,107.87
2017-11-09T12:00:21.986Z,114.53
2017-11-09T12:01:28.149Z,103.47
2017-11-09T12:02:34.319Z,118.25
2017-11-09T12:03:40.435Z,111.62
2017-11-09T12:04:46.656Z,107.43
2017-11-09T12:05:52.814Z,104.35
2017-11-09T12:06:58.955Z,100.32
2017-11-09T12:08:05.165Z,105.05
2017-11-09T12:09:11.306Z,98.65
2017-11-09T12:10:22.921Z,105.03
2017-11-09T12:11:28.731Z,103.78
2017-11-09T12:12:39.971Z,102.15
2017-11-09T12:13:46.098Z,101.07
2017-11-09T12:14:52.202Z,106.18
2017-11-09T12:15:58.344Z,101.03
2017-11-09T12:17:04.528Z,101.07
2017-11-09T12:18:10.679Z,88.55
2017-11-09T12:19:16.819Z,101.03
2017-11-09T12:20:23.210Z,99.90
2017-11-09T12:21:29.195Z,92.30
2017-11-09T12:22:35.340Z,88.47
2017-11-09T12:23:41.223Z,92.60
2017-11-09T12:24:47.340Z,93.32
2017-11-09T12:25:53.518Z,88.53
2017-11-09T12:26:59.662Z,92.07
2017-11-09T12:28:05.819Z,93.60
2017-11-09T12:29:14.582Z,88.18
2017-11-09T12:30:20.756Z,75.68
2017-11-09T12:31:26.882Z,89.30
2017-11-09T12:32:33.005Z,92.32
2017-11-09T12:33:39.100Z,90.82
2017-11-09T12:34:45.236Z,83.15
2017-11-09T12:35:51.395Z,86.28
2017-11-09T12:36:57.523Z,84.43
2017-11-09T12:38:03.645Z,90.53
2017-11-09T12:39:09.776Z,86.87
2017-11-09T12:40:15.952Z,84.28
2017-11-09T12:41:22.083Z,88.30
2017-11-09T12:42:28.190Z,85.47
2017-11-09T12:43:34.375Z,79.00
2017-11-09T12:44:40.517Z,86.93
2017-11-09T12:45:46.473Z,81.43
2017-11-09T12:46:52.244Z,84.65
2017-11-09T12:47:58.164Z,78.65
2017-11-09T12:49:04.505Z,80.03
2017-11-09T12:50:10.646Z,91.22
2017-11-09T12:51:16.782Z,88.47
2017-11-09T12:52:22.908Z,84.53
2017-11-09T12:53:29.024Z,86.45
2017-11-09T12:54:35.186Z,86.20
2017-11-09T12:55:41.335Z,79.37
2017-11-09T12:56:47.465Z,84.85
2017-11-09T12:57:53.597Z,84.22
2017-11-09T12:58:59.712Z,91.15
2017-11-09T13:00:06.746Z,84.07
2017-11-09T13:01:12.860Z,80.60
2017-11-09T13:02:18.998Z,86.05
2017-11-09T13:03:25.117Z,89.80
2017-11-09T13:04:31.295Z,80.50
2017-11-09T13:05:37.426Z,93.60
2017-11-09T13:06:45.291Z,79.53
2017-11-09T13:07:51.407Z,86.25
2017-11-09T13:08:57.541Z,83.07
2017-11-09T13:10:03.655Z,83.37
2017-11-09T13:11:09.626Z,85.82
2017-11-09T13:12:15.791Z,87.57
2017-11-09T13:13:21.906Z,89.18
2017-11-09T13:14:27.846Z,86.78
2017-11-09T13:15:33.751Z,75.07
2017-11-09T13:16:39.700Z,76.28
2017-11-09T13:17:45.814Z,81.15
2017-11-09T13:18:51.757Z,77.70
2017-11-09T13:19:57.671Z,88.60
2017-11-09T13:21:03.772Z,73.65
2017-11-09T13:22:09.862Z,77.62
2017-11-09T13:23:15.959Z,81.30
2017-11-09T13:24:21.925Z,78.10
2017-11-09T13:25:28.048Z,78.68
2017-11-09T13:26:34.184Z,79.03
2017-11-09T13:27:40.316Z,75.90
2017-11-09T13:28:46.422Z,75.80
2017-11-09T13:29:52.546Z,69.15
2017-11-09T13:30:58.656Z,75.65
2017-11-09T13:32:04.560Z,65.90
2017-11-09T13:33:10.668Z,73.55
2017-11-09T13:34:25.336Z,67.70
2017-11-09T13:35:31.505Z,68.95
2017-11-09T13:36:40.489Z,70.93
2017-11-09T13:37:46.638Z,72.68
2017-11-09T13:38:52.742Z,73.40
2017-11-09T13:40:00.208Z,67.12
2017-11-09T13:41:06.317Z,70.65
2017-11-09T13:42:12.278Z,77.65
2017-11-09T13:43:18.403Z,63.10
2017-11-09T13:44:24.535Z,70.00
2017-11-09T13:45:30.671Z,70.57
2017-11-09T13:46:36.801Z,68.95
2017-11-09T13:47:42.976Z,62.13
2017-11-09T13:48:49.063Z,67.70
2017-11-09T13:49:55.197Z,67.72
2017-11-09T13:51:01.329Z,66.47
2017-11-09T13:52:07.449Z,69.75
2017-11-09T13:53:13.543Z,65.45
2017-11-09T13:54:19.678Z,64.65
2017-11-09T13:55:25.870Z,64.00
2017-11-09T13:56:32.071Z,71.82
2017-11-09T13:57:38.018Z,68.55
2017-11-09T13:58:44.183Z,63.92
2017-11-09T13:59:50.316Z,59.00
2017-11-09T14:00:56.467Z,66.12
2017-11-09T14:02:02.610Z,69.45
2017-11-09T14:03:08.777Z,71.22
2017-11-09T14:04:14.998Z,66.82
2017-11-09T14:05:24.097Z,65.53